Wind From: 11-12-2017 12:03 Until: 12-12-2017 06:00 warning for: Wind Level: Orange info button

Power and phone distribution networks may be disrupted for relatively long periods., Roofs and chimneys can be damaged. , Tree branches may break. , Vehicles can be deported. , Traffic may be disrupted, particularly on secondary roads in forest areas. Limit your trips. , Limit your speed in highway driving, especially if you drive a vehicle or hitch sensitive to wind. , Do not go for walks in forests or along the coast., In town, be vigilant against possible falling objects., Do not work on roofs and do not touch any electrical line fallen on the ground., Store or secure sensitive objects to wind or likely to be damaged., Always install power generators outside buildings. 


Meteo18 Weather Cam more information Meteo18 Weather Cam


Thunder radar more information blitzortung!


Rain radar more information rain snow radar


Visit our other weather sites:

Template documentation
and downloads

And another site



Weather Underground History page Text

Daily Summary for September 8, 2016 Units:  Metric    English   Both
« Previous Day
Next Day »
Daily Weekly Monthly Yearly Custom
  High: Low: Average:
Temperature: 26.8 °C 12.1 °C 19.8 °C
Dew Point: 16.2 °C 10.5 °C 13.6 °C
Humidity: 92 % 47 % 69 %
Wind Speed: 29.0 km/h 0.0 km/h 5.9 km/h
Wind Gust: 33.8 km/h - -
Wind:- - West
Pressure: 1017.5 hPa 1011.4 hPa -
Precipitation: 0.0 mm    
Historical Graphs
 
 
Tabular Data for September 8, 2016
Time Temperature Dew Point Pressure Wind Wind Speed Wind Gust Humidity Rainfall Rate (Hourly)
00:02 16.8 °C 12.5 °C 1011.7 hPa Calm     76 % 0.0 mm
00:12 16.4 °C 12.4 °C 1011.7 hPa Calm   1.6 km/h 77 % 0.0 mm
00:17 16.3 °C 12.5 °C 1011.7 hPa Calm   1.6 km/h 78 % 0.0 mm
00:22 16.2 °C 12.4 °C 1011.7 hPa Calm   1.6 km/h 78 % 0.0 mm
00:32 16.1 °C 12.5 °C 1011.7 hPa Calm     79 % 0.0 mm
00:42 15.8 °C 12.4 °C 1011.7 hPa Calm     80 % 0.0 mm
00:47 15.7 °C 12.3 °C 1011.7 hPa Calm     80 % 0.0 mm
00:52 15.7 °C 12.4 °C 1011.7 hPa Calm     81 % 0.0 mm
00:57 15.7 °C 12.6 °C 1011.7 hPa Calm     82 % 0.0 mm
01:02 15.8 °C 12.7 °C 1011.7 hPa Calm   1.6 km/h 82 % 0.0 mm
01:07 15.6 °C 12.2 °C 1011.7 hPa Calm   1.6 km/h 80 % 0.0 mm
01:12 15.4 °C 12.2 °C 1011.7 hPa WNW 1.6 km/h 1.6 km/h 81 % 0.0 mm
01:17 15.2 °C 12.0 °C 1011.7 hPa Calm   1.6 km/h 81 % 0.0 mm
01:22 15.2 °C 12.3 °C 1011.7 hPa Calm   1.6 km/h 83 % 0.0 mm
01:27 15.2 °C 12.3 °C 1011.7 hPa Calm   1.6 km/h 83 % 0.0 mm
01:32 15.2 °C 12.1 °C 1011.7 hPa Calm     82 % 0.0 mm
01:37 15.1 °C 12.0 °C 1011.7 hPa Calm     82 % 0.0 mm
01:42 15.1 °C 12.2 °C 1011.7 hPa Calm     83 % 0.0 mm
01:47 15.1 °C 12.0 °C 1011.7 hPa Calm     82 % 0.0 mm
01:52 14.9 °C 12.0 °C 1011.7 hPa Calm     83 % 0.0 mm
01:57 14.8 °C 11.9 °C 1011.7 hPa Calm     83 % 0.0 mm
02:02 14.7 °C 11.8 °C 1011.7 hPa WNW 1.6 km/h 1.6 km/h 83 % 0.0 mm
02:07 14.6 °C 11.9 °C 1011.7 hPa Calm   1.6 km/h 84 % 0.0 mm
02:12 14.7 °C 12.2 °C 1011.7 hPa Calm   1.6 km/h 85 % 0.0 mm
02:17 14.7 °C 12.0 °C 1011.7 hPa Calm   1.6 km/h 84 % 0.0 mm
02:22 14.7 °C 12.0 °C 1011.7 hPa Calm   1.6 km/h 84 % 0.0 mm
02:32 14.4 °C 11.5 °C 1011.7 hPa Calm     83 % 0.0 mm
02:37 14.4 °C 12.1 °C 1011.7 hPa Calm     86 % 0.0 mm
02:42 14.3 °C 11.8 °C 1011.7 hPa Calm     85 % 0.0 mm
02:47 14.3 °C 12.0 °C 1011.7 hPa Calm     86 % 0.0 mm
02:52 14.2 °C 11.9 °C 1011.7 hPa Calm     86 % 0.0 mm
02:57 14.2 °C 11.9 °C 1011.7 hPa Calm   1.6 km/h 86 % 0.0 mm
03:07 14.4 °C 12.1 °C 1011.4 hPa Calm   1.6 km/h 86 % 0.0 mm
03:12 14.4 °C 12.1 °C 1011.7 hPa NNE 1.6 km/h 1.6 km/h 86 % 0.0 mm
03:17 14.4 °C 12.1 °C 1011.7 hPa Calm   3.2 km/h 86 % 0.0 mm
03:22 14.3 °C 12.0 °C 1011.7 hPa Calm   3.2 km/h 86 % 0.0 mm
03:27 14.4 °C 12.3 °C 1011.4 hPa Calm   3.2 km/h 87 % 0.0 mm
03:32 14.3 °C 12.0 °C 1011.4 hPa Calm     86 % 0.0 mm
03:37 14.2 °C 12.1 °C 1011.7 hPa Calm     87 % 0.0 mm
03:42 14.1 °C 12.0 °C 1011.7 hPa Calm     87 % 0.0 mm
03:47 13.8 °C 11.7 °C 1011.7 hPa Calm   1.6 km/h 87 % 0.0 mm
03:52 13.5 °C 11.2 °C 1011.7 hPa Calm   1.6 km/h 86 % 0.0 mm
03:57 13.2 °C 10.9 °C 1011.7 hPa Calm     86 % 0.0 mm
04:02 13.1 °C 11.2 °C 1011.7 hPa Calm   1.6 km/h 88 % 0.0 mm
04:07 13.1 °C 11.2 °C 1011.7 hPa Calm   1.6 km/h 88 % 0.0 mm
04:12 13.1 °C 11.2 °C 1011.7 hPa WNW 1.6 km/h 1.6 km/h 88 % 0.0 mm
04:22 13.3 °C 11.5 °C 1011.7 hPa WNW 1.6 km/h 1.6 km/h 89 % 0.0 mm
04:27 13.6 °C 11.6 °C 1011.7 hPa Calm   1.6 km/h 88 % 0.0 mm
04:32 13.7 °C 11.7 °C 1011.7 hPa Calm   1.6 km/h 88 % 0.0 mm
04:37 13.7 °C 11.9 °C 1011.7 hPa Calm   1.6 km/h 89 % 0.0 mm
04:42 13.7 °C 11.9 °C 1011.7 hPa Calm   1.6 km/h 89 % 0.0 mm
04:47 13.7 °C 11.6 °C 1011.7 hPa Calm   1.6 km/h 87 % 0.0 mm
04:52 13.6 °C 11.6 °C 1011.7 hPa Calm   1.6 km/h 88 % 0.0 mm
04:57 13.6 °C 11.8 °C 1011.7 hPa Calm   1.6 km/h 89 % 0.0 mm
05:02 13.7 °C 12.1 °C 1011.7 hPa South 1.6 km/h   90 % 0.0 mm
05:12 13.9 °C 12.3 °C 1011.7 hPa Calm   1.6 km/h 90 % 0.0 mm
05:17 13.8 °C 12.0 °C 1011.7 hPa Calm   1.6 km/h 89 % 0.0 mm
05:22 13.6 °C 11.8 °C 1011.7 hPa Calm     89 % 0.0 mm
05:27 13.4 °C 11.6 °C 1011.7 hPa Calm     89 % 0.0 mm
05:32 13.2 °C 11.4 °C 1011.7 hPa Calm     89 % 0.0 mm
05:37 13.0 °C 11.2 °C 1011.7 hPa Calm     89 % 0.0 mm
05:42 12.9 °C 11.3 °C 1011.7 hPa Calm     90 % 0.0 mm
05:47 12.8 °C 11.2 °C 1011.7 hPa Calm   1.6 km/h 90 % 0.0 mm
05:52 12.7 °C 11.1 °C 1011.7 hPa Calm   1.6 km/h 90 % 0.0 mm
05:57 12.6 °C 11.0 °C 1011.7 hPa Calm     90 % 0.0 mm
06:02 12.4 °C 10.8 °C 1011.7 hPa Calm     90 % 0.0 mm
06:12 12.5 °C 11.2 °C 1011.7 hPa Calm     92 % 0.0 mm
06:17 12.7 °C 11.4 °C 1011.7 hPa Calm     92 % 0.0 mm
06:22 12.8 °C 11.5 °C 1011.7 hPa Calm   1.6 km/h 92 % 0.0 mm
06:27 12.7 °C 11.3 °C 1011.7 hPa Calm   1.6 km/h 91 % 0.0 mm
06:32 12.6 °C 11.2 °C 1011.7 hPa Calm   1.6 km/h 91 % 0.0 mm
06:37 12.3 °C 10.7 °C 1012.1 hPa Calm   3.2 km/h 90 % 0.0 mm
06:42 12.1 °C 10.5 °C 1012.1 hPa Calm   3.2 km/h 90 % 0.0 mm
06:52 12.2 °C 10.9 °C 1012.1 hPa Calm   3.2 km/h 92 % 0.0 mm
06:57 12.2 °C 10.9 °C 1012.4 hPa Calm   3.2 km/h 92 % 0.0 mm
07:02 12.2 °C 10.9 °C 1012.1 hPa Calm     92 % 0.0 mm
07:12 12.3 °C 11.0 °C 1012.4 hPa Calm     92 % 0.0 mm
07:17 12.1 °C 10.5 °C 1012.4 hPa Calm     90 % 0.0 mm
07:22 12.3 °C 11.0 °C 1012.4 hPa WSW 3.2 km/h   92 % 0.0 mm
07:27 12.6 °C 11.2 °C 1012.4 hPa WSW 1.6 km/h 3.2 km/h 91 % 0.0 mm
07:32 12.8 °C 11.2 °C 1012.8 hPa Calm   3.2 km/h 90 % 0.0 mm
07:37 13.1 °C 11.3 °C 1012.4 hPa Calm   3.2 km/h 89 % 0.0 mm
07:42 13.4 °C 11.5 °C 1012.8 hPa Calm   4.8 km/h 88 % 0.0 mm
07:47 13.7 °C 11.6 °C 1012.8 hPa SW 1.6 km/h 4.8 km/h 87 % 0.0 mm
07:52 14.0 °C 11.7 °C 1012.8 hPa Calm   4.8 km/h 86 % 0.0 mm
07:57 14.3 °C 11.8 °C 1012.8 hPa SSW 4.8 km/h 4.8 km/h 85 % 0.0 mm
08:02 14.6 °C 11.9 °C 1012.8 hPa SSE 1.6 km/h 8.0 km/h 84 % 0.0 mm
08:22 15.1 °C 12.0 °C 1013.1 hPa Calm   6.4 km/h 82 % 0.0 mm
08:27 15.2 °C 12.1 °C 1013.1 hPa SW 3.2 km/h 6.4 km/h 82 % 0.0 mm
08:32 15.3 °C 12.1 °C 1013.1 hPa SW 1.6 km/h 6.4 km/h 81 % 0.0 mm
08:37 15.4 °C 12.2 °C 1013.1 hPa SSW 3.2 km/h 6.4 km/h 81 % 0.0 mm
08:42 15.6 °C 12.4 °C 1013.1 hPa SW 4.8 km/h 6.4 km/h 81 % 0.0 mm
08:47 15.8 °C 12.4 °C 1013.1 hPa South 6.4 km/h 9.7 km/h 80 % 0.0 mm
08:57 16.4 °C 12.6 °C 1013.1 hPa SW 4.8 km/h 9.7 km/h 78 % 0.0 mm
09:02 16.8 °C 12.5 °C 1013.1 hPa South 6.4 km/h 8.0 km/h 76 % 0.0 mm
09:12 17.4 °C 12.7 °C 1013.1 hPa SW 6.4 km/h 11.3 km/h 74 % 0.0 mm
09:17 17.7 °C 12.8 °C 1013.1 hPa SW 6.4 km/h 11.3 km/h 73 % 0.0 mm
09:22 18.1 °C 13.0 °C 1013.4 hPa SSW 4.8 km/h 11.3 km/h 72 % 0.0 mm
09:27 18.4 °C 13.0 °C 1013.4 hPa SSW 4.8 km/h 9.7 km/h 71 % 0.0 mm
09:47 20.9 °C 13.3 °C 1013.4 hPa WSW 6.4 km/h 19.3 km/h 62 % 0.0 mm
09:52 21.1 °C 13.5 °C 1013.4 hPa WSW 19.3 km/h 22.5 km/h 62 % 0.0 mm
09:57 21.2 °C 13.6 °C 1013.4 hPa SW 17.7 km/h 24.1 km/h 62 % 0.0 mm
10:02 21.4 °C 13.8 °C 1013.4 hPa SSW 27.4 km/h 27.4 km/h 62 % 0.0 mm
10:12 21.6 °C 14.0 °C 1013.8 hPa SW 20.9 km/h 30.6 km/h 62 % 0.0 mm
10:17 21.5 °C 14.2 °C 1013.4 hPa SW 20.9 km/h 32.2 km/h 63 % 0.0 mm
10:22 21.6 °C 14.3 °C 1013.8 hPa SW 9.7 km/h 32.2 km/h 63 % 0.0 mm
10:27 21.7 °C 14.3 °C 1013.8 hPa SW 29.0 km/h 33.8 km/h 63 % 0.0 mm
10:32 21.7 °C 14.6 °C 1013.8 hPa WSW 8.0 km/h 33.8 km/h 64 % 0.0 mm
10:37 22.0 °C 14.6 °C 1013.8 hPa WSW 17.7 km/h 33.8 km/h 63 % 0.0 mm
10:42 22.1 °C 14.5 °C 1013.8 hPa South 12.9 km/h 29.0 km/h 62 % 0.0 mm
10:47 22.2 °C 14.8 °C 1013.8 hPa West 14.5 km/h 29.0 km/h 63 % 0.0 mm
10:52 22.3 °C 14.9 °C 1013.8 hPa South 8.0 km/h 27.4 km/h 63 % 0.0 mm
10:57 22.6 °C 14.9 °C 1013.8 hPa WSW 4.8 km/h 27.4 km/h 62 % 0.0 mm
11:02 22.9 °C 14.7 °C 1013.8 hPa SW 14.5 km/h 24.1 km/h 60 % 0.0 mm
11:07 22.9 °C 15.0 °C 1013.8 hPa SW 8.0 km/h 22.5 km/h 61 % 0.0 mm
11:12 23.1 °C 14.9 °C 1013.8 hPa SW 4.8 km/h 27.4 km/h 60 % 0.0 mm
11:17 23.2 °C 14.7 °C 1013.8 hPa SW 20.9 km/h 27.4 km/h 59 % 0.0 mm
11:22 23.4 °C 14.9 °C 1013.8 hPa SW 8.0 km/h 27.4 km/h 59 % 0.0 mm
11:27 23.6 °C 14.9 °C 1013.8 hPa SW 19.3 km/h 25.7 km/h 58 % 0.0 mm
11:32 23.6 °C 14.9 °C 1013.8 hPa SW 19.3 km/h 27.4 km/h 58 % 0.0 mm
11:37 23.7 °C 14.9 °C 1013.8 hPa WSW 12.9 km/h 27.4 km/h 58 % 0.0 mm
11:42 24.0 °C 14.7 °C 1013.8 hPa West 20.9 km/h 27.4 km/h 56 % 0.0 mm
11:47 24.2 °C 14.9 °C 1013.8 hPa WSW 9.7 km/h 27.4 km/h 56 % 0.0 mm
11:52 24.3 °C 14.7 °C 1013.8 hPa NNW 11.3 km/h 24.1 km/h 55 % 0.0 mm
12:02 24.5 °C 14.6 °C 1013.8 hPa West 4.8 km/h 22.5 km/h 54 % 0.0 mm
12:07 24.4 °C 14.5 °C 1013.8 hPa WSW 12.9 km/h 25.7 km/h 54 % 0.0 mm
12:12 24.4 °C 14.2 °C 1013.8 hPa WSW 8.0 km/h 25.7 km/h 53 % 0.0 mm
12:17 24.6 °C 14.7 °C 1013.8 hPa WSW 11.3 km/h 25.7 km/h 54 % 0.0 mm
12:22 24.7 °C 14.8 °C 1013.8 hPa WSW 12.9 km/h 22.5 km/h 54 % 0.0 mm
12:27 24.9 °C 14.4 °C 1013.8 hPa West 3.2 km/h 29.0 km/h 52 % 0.0 mm
12:32 24.9 °C 14.4 °C 1013.8 hPa West 24.1 km/h 29.0 km/h 52 % 0.0 mm
12:42 25.1 °C 14.8 °C 1013.8 hPa West 9.7 km/h 25.7 km/h 53 % 0.0 mm
12:47 25.1 °C 14.8 °C 1013.8 hPa WSW 8.0 km/h 25.7 km/h 53 % 0.0 mm
12:52 25.1 °C 14.8 °C 1013.8 hPa WSW 11.3 km/h 24.1 km/h 53 % 0.0 mm
12:57 25.4 °C 15.1 °C 1013.8 hPa WSW 14.5 km/h 24.1 km/h 53 % 0.0 mm
13:02 25.5 °C 15.2 °C 1014.1 hPa West 16.1 km/h 24.1 km/h 53 % 0.0 mm
13:07 25.3 °C 15.3 °C 1014.1 hPa West 8.0 km/h 24.1 km/h 54 % 0.0 mm
13:12 25.3 °C 15.3 °C 1014.1 hPa West 16.1 km/h 24.1 km/h 54 % 0.0 mm
13:17 25.3 °C 15.3 °C 1014.1 hPa West 9.7 km/h 24.1 km/h 54 % 0.0 mm
13:22 25.3 °C 15.0 °C 1014.1 hPa WSW 9.7 km/h 22.5 km/h 53 % 0.0 mm
13:32 25.5 °C 15.2 °C 1014.1 hPa WSW 8.0 km/h 20.9 km/h 53 % 0.0 mm
13:37 25.8 °C 15.5 °C 1014.1 hPa West 9.7 km/h 20.9 km/h 53 % 0.0 mm
13:47 25.8 °C 15.5 °C 1014.1 hPa SW 19.3 km/h 24.1 km/h 53 % 0.0 mm
13:52 26.0 °C 15.4 °C 1014.1 hPa West 19.3 km/h 24.1 km/h 52 % 0.0 mm
13:57 26.0 °C 15.7 °C 1014.1 hPa SW 9.7 km/h 24.1 km/h 53 % 0.0 mm
14:02 25.9 °C 15.6 °C 1014.4 hPa WSW 17.7 km/h 24.1 km/h 53 % 0.0 mm
14:07 25.9 °C 15.6 °C 1014.4 hPa West 8.0 km/h 24.1 km/h 53 % 0.0 mm
14:12 26.3 °C 15.7 °C 1014.4 hPa WSW 16.1 km/h 24.1 km/h 52 % 0.0 mm
14:17 26.2 °C 15.6 °C 1014.4 hPa WSW 4.8 km/h 24.1 km/h 52 % 0.0 mm
14:22 26.3 °C 15.7 °C 1014.4 hPa West 9.7 km/h 20.9 km/h 52 % 0.0 mm
14:27 26.2 °C 15.3 °C 1014.4 hPa WSW 12.9 km/h 20.9 km/h 51 % 0.0 mm
14:32 26.2 °C 15.3 °C 1014.4 hPa SW 3.2 km/h 24.1 km/h 51 % 0.0 mm
14:37 26.3 °C 15.4 °C 1014.4 hPa WSW 14.5 km/h 24.1 km/h 51 % 0.0 mm
14:42 26.3 °C 15.0 °C 1014.4 hPa West 11.3 km/h 24.1 km/h 50 % 0.0 mm
14:47 26.5 °C 15.2 °C 1014.4 hPa WSW 8.0 km/h 24.1 km/h 50 % 0.0 mm
14:52 26.3 °C 14.7 °C 1014.4 hPa West 4.8 km/h 20.9 km/h 49 % 0.0 mm
14:57 26.6 °C 15.0 °C 1014.4 hPa West 9.7 km/h 20.9 km/h 49 % 0.0 mm
15:02 26.5 °C 14.9 °C 1014.4 hPa SW 6.4 km/h 20.9 km/h 49 % 0.0 mm
15:07 26.6 °C 14.4 °C 1014.4 hPa WNW 9.7 km/h 24.1 km/h 47 % 0.0 mm
15:12 26.6 °C 14.4 °C 1014.4 hPa West 14.5 km/h 24.1 km/h 47 % 0.0 mm
15:17 26.6 °C 14.4 °C 1014.4 hPa West 4.8 km/h 24.1 km/h 47 % 0.0 mm
15:22 26.5 °C 14.6 °C 1014.4 hPa WSW 8.0 km/h 24.1 km/h 48 % 0.0 mm
15:27 26.7 °C 14.8 °C 1014.4 hPa NW 9.7 km/h 19.3 km/h 48 % 0.0 mm
15:37 26.5 °C 14.6 °C 1014.4 hPa West 11.3 km/h 22.5 km/h 48 % 0.0 mm
15:42 26.8 °C 15.2 °C 1014.4 hPa WSW 6.4 km/h 22.5 km/h 49 % 0.0 mm
15:47 26.7 °C 14.8 °C 1014.4 hPa WSW 9.7 km/h 20.9 km/h 48 % 0.0 mm
15:52 26.6 °C 15.0 °C 1014.4 hPa WNW 12.9 km/h 20.9 km/h 49 % 0.0 mm
15:57 26.6 °C 15.0 °C 1014.4 hPa West 9.7 km/h 22.5 km/h 49 % 0.0 mm
16:02 26.7 °C 15.1 °C 1014.4 hPa North 12.9 km/h 22.5 km/h 49 % 0.0 mm
16:07 26.4 °C 14.8 °C 1014.8 hPa WSW 11.3 km/h 22.5 km/h 49 % 0.0 mm
16:17 26.3 °C 15.4 °C 1014.8 hPa NNW 11.3 km/h 20.9 km/h 51 % 0.0 mm
16:22 26.1 °C 15.2 °C 1014.8 hPa West 4.8 km/h 20.9 km/h 51 % 0.0 mm
16:27 25.9 °C 15.0 °C 1014.8 hPa WNW 8.0 km/h 20.9 km/h 51 % 0.0 mm
16:32 25.8 °C 15.2 °C 1014.8 hPa WSW 6.4 km/h 20.9 km/h 52 % 0.0 mm
16:37 25.7 °C 15.1 °C 1014.8 hPa West 9.7 km/h 19.3 km/h 52 % 0.0 mm
16:42 25.6 °C 15.3 °C 1014.8 hPa West 12.9 km/h 25.7 km/h 53 % 0.0 mm
16:52 25.3 °C 15.3 °C 1014.8 hPa West 3.2 km/h 20.9 km/h 54 % 0.0 mm
16:57 25.6 °C 15.3 °C 1015.1 hPa West 12.9 km/h 19.3 km/h 53 % 0.0 mm
17:02 25.8 °C 15.5 °C 1014.8 hPa SW 12.9 km/h 19.3 km/h 53 % 0.0 mm
17:07 25.9 °C 15.6 °C 1015.1 hPa WNW 12.9 km/h 20.9 km/h 53 % 0.0 mm
17:12 25.8 °C 15.5 °C 1015.1 hPa NW 11.3 km/h 20.9 km/h 53 % 0.0 mm
17:17 26.2 °C 15.6 °C 1015.1 hPa WNW 14.5 km/h 20.9 km/h 52 % 0.0 mm
17:22 26.1 °C 15.5 °C 1015.1 hPa West 9.7 km/h 20.9 km/h 52 % 0.0 mm
17:27 25.8 °C 15.5 °C 1015.1 hPa West 9.7 km/h 25.7 km/h 53 % 0.0 mm
17:32 25.8 °C 15.5 °C 1015.1 hPa SSW 8.0 km/h 25.7 km/h 53 % 0.0 mm
17:37 26.0 °C 15.7 °C 1015.1 hPa West 14.5 km/h 25.7 km/h 53 % 0.0 mm
17:47 25.7 °C 15.7 °C 1015.1 hPa WNW 11.3 km/h 20.9 km/h 54 % 0.0 mm
17:52 25.6 °C 15.6 °C 1015.5 hPa West 6.4 km/h 20.9 km/h 54 % 0.0 mm
17:57 25.6 °C 15.6 °C 1015.5 hPa WNW 17.7 km/h 20.9 km/h 54 % 0.0 mm
18:02 25.2 °C 15.8 °C 1015.5 hPa WNW 20.9 km/h 20.9 km/h 56 % 0.0 mm
18:07 24.8 °C 15.7 °C 1015.5 hPa WNW 12.9 km/h 29.0 km/h 57 % 0.0 mm
18:12 24.7 °C 15.9 °C 1015.5 hPa West 14.5 km/h 29.0 km/h 58 % 0.0 mm
18:17 24.7 °C 15.9 °C 1015.5 hPa WNW 9.7 km/h 29.0 km/h 58 % 0.0 mm
18:22 24.8 °C 16.2 °C 1015.5 hPa West 12.9 km/h 24.1 km/h 59 % 0.0 mm
18:32 24.6 °C 16.1 °C 1015.5 hPa NW 14.5 km/h 22.5 km/h 59 % 0.0 mm
18:42 24.1 °C 15.8 °C 1015.8 hPa WSW 14.5 km/h 22.5 km/h 60 % 0.0 mm
18:47 23.9 °C 15.7 °C 1015.8 hPa WNW 11.3 km/h 22.5 km/h 60 % 0.0 mm
18:52 23.8 °C 15.6 °C 1015.5 hPa SW 6.4 km/h 24.1 km/h 60 % 0.0 mm
18:57 23.8 °C 15.6 °C 1015.8 hPa WNW 11.3 km/h 24.1 km/h 60 % 0.0 mm
19:02 23.8 °C 15.3 °C 1015.8 hPa West 8.0 km/h 24.1 km/h 59 % 0.0 mm
19:07 23.8 °C 15.3 °C 1015.8 hPa NNW 9.7 km/h 20.9 km/h 59 % 0.0 mm
19:17 23.6 °C 15.1 °C 1015.8 hPa NNW 14.5 km/h 22.5 km/h 59 % 0.0 mm
19:22 23.4 °C 15.2 °C 1015.8 hPa WNW 9.7 km/h 22.5 km/h 60 % 0.0 mm
19:27 23.3 °C 15.4 °C 1015.8 hPa WNW 6.4 km/h 22.5 km/h 61 % 0.0 mm
19:32 23.1 °C 15.4 °C 1015.8 hPa West 8.0 km/h 19.3 km/h 62 % 0.0 mm
19:37 22.9 °C 15.2 °C 1015.8 hPa WSW 8.0 km/h 19.3 km/h 62 % 0.0 mm
19:42 22.8 °C 15.4 °C 1015.8 hPa NW 6.4 km/h 19.3 km/h 63 % 0.0 mm
19:52 22.6 °C 15.4 °C 1016.1 hPa SW 4.8 km/h 17.7 km/h 64 % 0.0 mm
19:57 22.6 °C 15.4 °C 1016.1 hPa WNW 12.9 km/h 14.5 km/h 64 % 0.0 mm
20:02 22.5 °C 15.3 °C 1016.1 hPa WNW 4.8 km/h 17.7 km/h 64 % 0.0 mm
20:07 22.4 °C 15.3 °C 1016.1 hPa West 8.0 km/h 17.7 km/h 64 % 0.0 mm
20:12 22.3 °C 15.2 °C 1016.1 hPa West 9.7 km/h 17.7 km/h 64 % 0.0 mm
20:17 22.3 °C 15.2 °C 1016.1 hPa WNW 1.6 km/h 16.1 km/h 64 % 0.0 mm
20:22 22.2 °C 15.3 °C 1016.1 hPa West 9.7 km/h 16.1 km/h 65 % 0.0 mm
20:27 22.1 °C 15.2 °C 1016.1 hPa West 4.8 km/h 12.9 km/h 65 % 0.0 mm
20:32 21.9 °C 15.0 °C 1016.1 hPa West 3.2 km/h 9.7 km/h 65 % 0.0 mm
20:37 21.8 °C 15.2 °C 1016.1 hPa WNW 1.6 km/h 9.7 km/h 66 % 0.0 mm
20:47 21.5 °C 15.1 °C 1016.5 hPa West 6.4 km/h 11.3 km/h 67 % 0.0 mm
20:52 21.3 °C 15.2 °C 1016.5 hPa WNW 8.0 km/h 11.3 km/h 68 % 0.0 mm
20:57 21.2 °C 15.1 °C 1016.5 hPa WNW 1.6 km/h 11.3 km/h 68 % 0.0 mm
21:02 21.1 °C 15.0 °C 1016.5 hPa WNW 4.8 km/h 11.3 km/h 68 % 0.0 mm
21:07 21.1 °C 15.2 °C 1016.5 hPa Calm   11.3 km/h 69 % 0.0 mm
21:12 20.9 °C 15.0 °C 1016.5 hPa WNW 3.2 km/h 6.4 km/h 69 % 0.0 mm
21:17 20.8 °C 14.9 °C 1016.5 hPa WNW 4.8 km/h 6.4 km/h 69 % 0.0 mm
21:22 20.7 °C 15.0 °C 1016.8 hPa WNW 1.6 km/h 6.4 km/h 70 % 0.0 mm
21:27 20.4 °C 14.7 °C 1016.8 hPa Calm   6.4 km/h 70 % 0.0 mm
21:32 20.3 °C 14.9 °C 1016.8 hPa WNW 1.6 km/h 6.4 km/h 71 % 0.0 mm
21:42 20.2 °C 14.6 °C 1016.8 hPa WNW 6.4 km/h 6.4 km/h 70 % 0.0 mm
21:52 19.9 °C 14.3 °C 1016.8 hPa West 1.6 km/h 6.4 km/h 70 % 0.0 mm
21:57 19.9 °C 14.3 °C 1016.8 hPa WNW 4.8 km/h 6.4 km/h 70 % 0.0 mm
22:02 19.8 °C 14.2 °C 1016.8 hPa WNW 3.2 km/h 4.8 km/h 70 % 0.0 mm
22:07 19.7 °C 14.1 °C 1016.8 hPa WNW 1.6 km/h 6.4 km/h 70 % 0.0 mm
22:12 19.6 °C 14.0 °C 1017.2 hPa WNW 3.2 km/h 6.4 km/h 70 % 0.0 mm
22:17 19.6 °C 14.0 °C 1016.8 hPa WNW 3.2 km/h 6.4 km/h 70 % 0.0 mm
22:22 19.5 °C 13.9 °C 1017.2 hPa NW 3.2 km/h 6.4 km/h 70 % 0.0 mm
22:27 19.6 °C 14.0 °C 1017.2 hPa NW 1.6 km/h 8.0 km/h 70 % 0.0 mm
22:32 19.6 °C 14.0 °C 1017.2 hPa NW 3.2 km/h 8.0 km/h 70 % 0.0 mm
22:37 19.5 °C 13.9 °C 1017.2 hPa NW 6.4 km/h 8.0 km/h 70 % 0.0 mm
22:42 19.4 °C 14.0 °C 1017.2 hPa WNW 1.6 km/h 6.4 km/h 71 % 0.0 mm
22:52 19.1 °C 13.7 °C 1017.2 hPa Calm   6.4 km/h 71 % 0.0 mm
22:57 19.1 °C 13.5 °C 1017.5 hPa Calm   4.8 km/h 70 % 0.0 mm
23:02 19.0 °C 13.2 °C 1017.2 hPa WNW 1.6 km/h 4.8 km/h 69 % 0.0 mm
23:07 18.9 °C 13.1 °C 1017.2 hPa NW 1.6 km/h 4.8 km/h 69 % 0.0 mm
23:12 18.9 °C 13.1 °C 1017.5 hPa NW 3.2 km/h 4.8 km/h 69 % 0.0 mm
23:17 19.0 °C 13.0 °C 1017.5 hPa West 1.6 km/h 4.8 km/h 68 % 0.0 mm
23:22 19.0 °C 13.0 °C 1017.5 hPa NW 1.6 km/h 4.8 km/h 68 % 0.0 mm
23:27 18.9 °C 12.6 °C 1017.5 hPa Calm   4.8 km/h 67 % 0.0 mm
23:32 18.9 °C 12.6 °C 1017.5 hPa West 1.6 km/h 4.8 km/h 67 % 0.0 mm
23:37 18.9 °C 12.4 °C 1017.5 hPa WNW 1.6 km/h 4.8 km/h 66 % 0.0 mm
23:42 18.8 °C 12.3 °C 1017.5 hPa WNW 1.6 km/h 8.0 km/h 66 % 0.0 mm
23:47 18.8 °C 12.3 °C 1017.5 hPa WNW 6.4 km/h 8.0 km/h 66 % 0.0 mm
23:52 18.7 °C 12.2 °C 1017.5 hPa WNW 3.2 km/h 8.0 km/h 66 % 0.0 mm
23:57 18.6 °C 12.1 °C 1017.5 hPa NNW 3.2 km/h 8.0 km/h 66 % 0.0 mm
Meteo18
Compliments of Weather Underground - 4 mb

Script developed by  Jim McMurry - jmcmurry@mwt.net Adapted for the template by  Wim van der Kuil - Leuven-Template.eu

You find our weather info also at:

European Weather Network

Weather Underground

Equipment we use:

Weather-station
Davis Vue

Weather-program
Meteohub

Weather-server
Raspberry PI 2 B+

Provider
1 and 1

Davis Vue

Meteohub

Raspberry PI 2 B+

1 and 1